Time;durP1;ratioP1;P1;durP2;ratioP2;P2;SDS_P1;SDS_P2;PMS_P1;PMS_P2;Temp;Humidity;BMP_temperature;BMP_pressure;BME280_temperature;BME280_humidity;BME280_pressure;Samples;Min_cycle;Max_cycle;Signal;HPM_P1;HPM_P2
2023/07/27 00:01:04;;;;;;;2.08;1.70;;;;;;;14.92;77.44;99759.72;5069911;28;20547;-62
2023/07/27 00:03:32;;;;;;;2.08;1.80;;;;;;;14.93;76.91;99761.41;5065956;28;20293;-63
2023/07/27 00:06:00;;;;;;;2.92;2.10;;;;;;;14.93;77.04;99760.56;5066757;28;20209;-63
2023/07/27 00:08:29;;;;;;;3.17;1.98;;;;;;;14.95;77.75;99764.81;5065332;28;20232;-62
2023/07/27 00:10:59;;;;;;;3.30;2.03;;;;;;;14.95;78.36;99764.81;5070935;28;20659;-63
2023/07/27 00:13:26;;;;;;;1.48;1.25;;;;;;;14.91;78.43;99765.81;5068847;28;20201;-61
2023/07/27 00:15:54;;;;;;;3.75;1.67;;;;;;;14.88;77.75;99765.06;5067135;28;20250;-60
2023/07/27 00:18:22;;;;;;;2.03;1.83;;;;;;;14.85;77.44;99767.75;5067480;28;20569;-62
2023/07/27 00:20:50;;;;;;;2.05;1.85;;;;;;;14.87;77.44;99759.00;5068144;28;20200;-61
2023/07/27 00:23:18;;;;;;;4.38;1.98;;;;;;;14.84;77.23;99771.22;5066089;28;20217;-62
2023/07/27 00:25:46;;;;;;;4.38;2.38;;;;;;;14.81;77.43;99766.16;5065213;28;20259;-62
2023/07/27 00:28:15;;;;;;;2.30;1.77;;;;;;;14.79;77.44;99771.38;5067912;28;20235;-62
2023/07/27 00:30:43;;;;;;;3.35;2.05;;;;;;;14.80;78.35;99774.81;5069776;28;20300;-63
2023/07/27 00:33:11;;;;;;;2.63;2.20;;;;;;;14.79;78.32;99778.31;5069868;28;20719;-61
2023/07/27 00:35:39;;;;;;;3.63;2.17;;;;;;;14.79;78.15;99778.31;5067869;28;20251;-61
2023/07/27 00:38:07;;;;;;;2.42;2.22;;;;;;;14.79;78.71;99779.16;5068657;28;20205;-62
2023/07/27 00:40:35;;;;;;;2.55;2.33;;;;;;;14.80;78.32;99786.06;5064928;28;20280;-61
2023/07/27 00:43:03;;;;;;;3.13;2.60;;;;;;;14.78;78.82;99787.84;5067300;28;20217;-64
2023/07/27 00:45:32;;;;;;;3.15;2.45;;;;;;;14.74;79.14;99791.47;5070373;28;20276;-62
2023/07/27 00:48:00;;;;;;;4.65;2.55;;;;;;;14.72;79.30;99794.06;5069138;28;20229;-63
2023/07/27 00:50:28;;;;;;;3.78;2.33;;;;;;;14.69;79.40;99790.75;5069263;28;20854;-63
2023/07/27 00:52:56;;;;;;;2.47;2.03;;;;;;;14.66;79.25;99793.47;5066551;28;20539;-62
2023/07/27 00:55:25;;;;;;;2.45;2.20;;;;;;;14.62;79.43;99802.22;5069319;28;20579;-62
2023/07/27 00:57:53;;;;;;;2.55;2.35;;;;;;;14.60;79.14;99810.03;5063464;28;20300;-61
2023/07/27 01:00:22;;;;;;;5.60;2.08;;;;;;;14.56;78.85;99812.78;5062230;28;20566;-61
2023/07/27 01:02:51;;;;;;;2.83;1.98;;;;;;;14.54;78.80;99812.81;5065205;28;20579;-61
2023/07/27 01:05:19;;;;;;;2.22;2.03;;;;;;;14.54;79.01;99809.38;5068934;28;20208;-63
2023/07/27 01:07:47;;;;;;;2.95;1.90;;;;;;;14.50;78.97;99803.44;5068865;28;20224;-66
2023/07/27 01:10:16;;;;;;;2.25;1.98;;;;;;;14.50;78.92;99799.09;5068275;28;20526;-63
2023/07/27 01:12:49;;;;;;;3.60;1.97;;;;;;;14.50;78.57;99798.25;5056799;28;20311;-64
2023/07/27 01:15:23;;;;;;;2.27;1.50;;;;;;;14.52;78.37;99800.81;5062788;28;20201;-63
2023/07/27 01:17:57;;;;;;;3.50;1.98;;;;;;;14.52;78.10;99799.06;5069416;28;20763;-61
2023/07/27 01:20:35;;;;;;;4.15;1.67;;;;;;;14.49;78.66;99791.34;5067814;28;20200;-61
2023/07/27 01:23:46;;;;;;;2.55;1.88;;;;;;;14.50;78.32;99788.72;5061583;28;20266;-61
2023/07/27 01:26:56;;;;;;;2.75;1.90;;;;;;;14.53;77.90;99797.31;5057809;28;20210;-63
2023/07/27 01:29:45;;;;;;;2.47;1.70;;;;;;;14.53;77.51;99794.72;5062600;28;20214;-62
2023/07/27 01:32:18;;;;;;;1.57;1.37;;;;;;;14.53;77.97;99799.91;5063696;28;20618;-61
2023/07/27 01:34:47;;;;;;;2.45;1.80;;;;;;;14.55;78.10;99796.38;5065340;28;20560;-61
2023/07/27 01:37:18;;;;;;;2.30;1.73;;;;;;;14.55;77.82;99793.78;5066132;28;20233;-61
2023/07/27 01:39:52;;;;;;;2.15;1.80;;;;;;;14.59;77.90;99792.81;5071967;28;20201;-62
2023/07/27 01:42:23;;;;;;;2.85;1.95;;;;;;;14.57;78.03;99793.75;5071028;28;20205;-63
2023/07/27 01:44:52;;;;;;;1.60;1.48;;;;;;;14.55;77.98;99796.38;5065270;28;20597;-62
2023/07/27 01:47:23;;;;;;;1.77;1.40;;;;;;;14.55;77.78;99791.22;5064557;28;20648;-62
2023/07/27 01:49:52;;;;;;;1.50;1.35;;;;;;;14.54;77.72;99799.84;5072070;28;20279;-61
2023/07/27 01:52:20;;;;;;;1.50;1.40;;;;;;;14.50;77.55;99791.31;5068212;28;20208;-61
2023/07/27 01:54:50;;;;;;;2.08;1.60;;;;;;;14.49;77.27;99797.41;5069966;28;20209;-61
2023/07/27 01:57:18;;;;;;;2.33;1.63;;;;;;;14.49;77.23;99801.72;5070941;28;20220;-63
2023/07/27 01:59:48;;;;;;;1.63;1.52;;;;;;;14.47;77.61;99794.00;5071013;28;20197;-64
2023/07/27 02:02:16;;;;;;;2.25;1.52;;;;;;;14.50;77.36;99793.91;5063160;28;20274;-60
2023/07/27 02:04:45;;;;;;;4.53;1.80;;;;;;;14.56;77.29;99795.50;5073157;28;20197;-62
2023/07/27 02:07:17;;;;;;;2.88;1.20;;;;;;;14.57;77.71;99788.56;5072999;28;20205;-62
2023/07/27 02:09:45;;;;;;;2.53;1.50;;;;;;;14.60;77.16;99796.25;5068870;28;20263;-61
2023/07/27 02:12:20;;;;;;;3.03;1.85;;;;;;;14.61;77.42;99805.69;5064757;28;20217;-62
2023/07/27 02:14:54;;;;;;;2.97;1.80;;;;;;;14.65;77.63;99809.88;5072121;28;20201;-60
2023/07/27 02:17:31;;;;;;;2.22;2.00;;;;;;;14.67;78.08;99813.28;5072901;28;20209;-63
2023/07/27 02:20:03;;;;;;;2.67;1.60;;;;;;;14.63;76.96;99814.28;5068947;28;20293;-63
2023/07/27 02:22:32;;;;;;;2.83;1.60;;;;;;;14.54;77.22;99799.84;5071213;28;20198;-61
2023/07/27 02:25:00;;;;;;;2.00;1.43;;;;;;;14.50;77.31;99791.31;5070968;28;20205;-61
2023/07/27 02:27:28;;;;;;;2.43;1.40;;;;;;;14.50;76.65;99788.72;5063604;28;20197;-63
2023/07/27 02:29:56;;;;;;;1.80;1.42;;;;;;;14.49;75.61;99776.69;5065832;28;21147;-61
2023/07/27 02:32:24;;;;;;;3.30;1.43;;;;;;;14.48;75.98;99767.19;5062054;28;20676;-61
2023/07/27 02:34:52;;;;;;;2.42;1.40;;;;;;;14.49;75.94;99762.84;5070445;28;20700;-66
2023/07/27 02:37:22;;;;;;;2.10;1.20;;;;;;;14.44;75.47;99767.34;5071381;28;20206;-62
2023/07/27 02:39:50;;;;;;;2.63;1.75;;;;;;;14.34;75.19;99782.31;5068819;28;20198;-61
2023/07/27 02:42:18;;;;;;;1.67;1.43;;;;;;;14.33;76.04;99783.22;5072677;28;20282;-61
2023/07/27 02:44:46;;;;;;;3.13;1.50;;;;;;;14.37;76.04;99779.63;5071270;28;20207;-65
2023/07/27 02:47:14;;;;;;;2.05;1.42;;;;;;;14.40;76.12;99782.13;5062767;28;20225;-62
2023/07/27 02:49:42;;;;;;;4.20;1.67;;;;;;;14.43;76.03;99782.03;5068428;28;20540;-62
2023/07/27 02:52:10;;;;;;;2.03;1.55;;;;;;;14.46;76.12;99781.91;5064458;28;20245;-62
2023/07/27 02:54:39;;;;;;;1.73;1.40;;;;;;;14.48;75.28;99790.50;5070615;28;20259;-63
2023/07/27 02:57:07;;;;;;;1.75;1.60;;;;;;;14.48;75.22;99787.91;5064685;28;20243;-61
2023/07/27 02:59:35;;;;;;;2.70;1.77;;;;;;;14.50;75.63;99796.50;5070130;28;20212;-61
2023/07/27 03:02:03;;;;;;;2.67;1.30;;;;;;;14.52;75.70;99801.66;5070938;28;20201;-62
2023/07/27 03:04:31;;;;;;;1.65;1.50;;;;;;;14.54;75.12;99799.00;5071631;28;20209;-61
2023/07/27 03:06:59;;;;;;;1.70;1.60;;;;;;;14.53;75.59;99792.13;5066886;28;20546;-62
2023/07/27 03:09:27;;;;;;;2.58;1.70;;;;;;;14.54;75.61;99797.25;5065037;28;20565;-63
2023/07/27 03:11:56;;;;;;;3.63;1.85;;;;;;;14.55;75.74;99796.38;5070335;28;20580;-63
2023/07/27 03:14:24;;;;;;;2.40;1.85;;;;;;;14.53;75.92;99802.50;5067599;28;20205;-61
2023/07/27 03:16:52;;;;;;;2.93;1.77;;;;;;;14.51;75.95;99805.16;5068383;28;20652;-64
2023/07/27 03:19:20;;;;;;;2.17;1.97;;;;;;;14.48;76.58;99802.63;5068927;28;20205;-62
2023/07/27 03:21:49;;;;;;;3.25;2.00;;;;;;;14.46;76.55;99800.06;5063678;28;20217;-62
2023/07/27 03:24:17;;;;;;;2.55;2.00;;;;;;;14.46;76.57;99807.84;5061075;28;20213;-65
2023/07/27 03:26:45;;;;;;;2.10;1.87;;;;;;;14.44;76.94;99812.25;5066470;28;20205;-62
2023/07/27 03:29:14;;;;;;;1.67;1.58;;;;;;;14.43;76.73;99813.16;5070225;28;20319;-62
2023/07/27 03:31:42;;;;;;;1.83;1.40;;;;;;;14.42;76.18;99819.22;5069229;28;20232;-61
2023/07/27 03:34:10;;;;;;;3.63;1.93;;;;;;;14.41;76.01;99814.94;5068603;28;20576;-62
2023/07/27 03:36:38;;;;;;;1.80;1.70;;;;;;;14.43;76.05;99814.88;5066478;28;20198;-61
2023/07/27 03:39:06;;;;;;;3.43;2.10;;;;;;;14.45;75.40;99813.09;5067784;28;20228;-62
2023/07/27 03:41:33;;;;;;;1.95;1.63;;;;;;;14.48;74.96;99819.03;5067572;28;20206;-61
2023/07/27 03:44:01;;;;;;;3.05;2.10;;;;;;;14.52;75.59;99821.56;5067560;28;20648;-62
2023/07/27 03:46:31;;;;;;;3.45;2.20;;;;;;;14.58;76.23;99821.34;5065638;28;20637;-61
2023/07/27 03:48:59;;;;;;;2.35;2.15;;;;;;;14.63;76.23;99825.50;5068700;28;20251;-63
2023/07/27 03:51:27;;;;;;;3.47;2.17;;;;;;;14.67;76.42;99832.28;5060038;28;20591;-63
2023/07/27 03:53:55;;;;;;;2.38;1.92;;;;;;;14.73;76.59;99836.44;5063693;28;20217;-62
2023/07/27 03:56:24;;;;;;;4.43;2.00;;;;;;;14.75;76.70;99842.41;5057093;28;20244;-64
2023/07/27 03:58:52;;;;;;;2.88;2.00;;;;;;;14.76;76.87;99836.31;5064339;28;20197;-61
2023/07/27 04:01:20;;;;;;;2.38;2.05;;;;;;;14.76;76.67;99836.31;5060173;28;20201;-64
2023/07/27 04:03:49;;;;;;;3.15;2.42;;;;;;;14.75;76.84;99829.44;5070068;28;20247;-63
2023/07/27 04:06:17;;;;;;;3.63;2.28;;;;;;;14.74;76.64;99830.34;5070576;28;20672;-61
2023/07/27 04:08:45;;;;;;;2.97;2.40;;;;;;;14.74;76.52;99832.94;5069529;28;20279;-63
2023/07/27 04:11:13;;;;;;;4.05;2.25;;;;;;;14.74;76.38;99833.78;5071255;28;20209;-62
2023/07/27 04:13:41;;;;;;;3.20;2.38;;;;;;;14.77;76.72;99840.63;5063820;28;20337;-61
2023/07/27 04:16:09;;;;;;;3.90;2.05;;;;;;;14.75;76.10;99834.63;5067029;28;20205;-62
2023/07/27 04:18:37;;;;;;;4.03;2.20;;;;;;;14.78;76.23;99838.88;5062927;28;20205;-61
2023/07/27 04:21:06;;;;;;;2.40;2.20;;;;;;;14.80;75.95;99837.97;5071098;28;20202;-60
2023/07/27 04:23:34;;;;;;;2.83;2.20;;;;;;;14.74;76.09;99843.31;5068082;28;20652;-61
2023/07/27 04:26:03;;;;;;;3.50;2.43;;;;;;;14.71;75.72;99838.22;5066246;28;20217;-61
2023/07/27 04:28:31;;;;;;;4.10;2.03;;;;;;;14.74;76.18;99844.16;5058356;28;20196;-61
2023/07/27 04:30:58;;;;;;;3.13;2.40;;;;;;;14.80;75.85;99848.31;5058694;28;20754;-62
2023/07/27 04:33:26;;;;;;;2.80;2.28;;;;;;;14.83;75.55;99844.75;5066312;28;20229;-62
2023/07/27 04:35:57;;;;;;;2.47;2.27;;;;;;;14.92;74.98;99842.72;5069250;28;20201;-60
2023/07/27 04:38:26;;;;;;;2.88;2.30;;;;;;;15.07;75.16;99837.94;5066743;28;20684;-62
2023/07/27 04:40:54;;;;;;;3.63;2.00;;;;;;;15.22;74.27;99840.88;5069419;28;20201;-62
2023/07/27 04:43:22;;;;;;;2.92;2.22;;;;;;;15.37;73.76;99818.72;5062901;28;20193;-61
2023/07/27 04:45:50;;;;;;;2.50;2.30;;;;;;;15.52;72.34;99829.47;5065746;28;20202;-62
2023/07/27 04:48:18;;;;;;;2.22;2.03;;;;;;;15.64;72.00;99827.28;5069876;28;20201;-67
2023/07/27 04:50:46;;;;;;;2.97;2.45;;;;;;;15.79;71.88;99831.09;5062307;28;20248;-61
2023/07/27 04:53:14;;;;;;;2.72;2.25;;;;;;;15.94;71.24;99825.38;5068789;28;20232;-62
2023/07/27 04:55:43;;;;;;;4.03;2.78;;;;;;;16.04;71.23;99825.84;5069717;28;20288;-62
2023/07/27 04:58:11;;;;;;;4.32;2.42;;;;;;;16.24;71.28;99832.03;5060567;28;20202;-61
2023/07/27 05:00:39;;;;;;;5.00;2.85;;;;;;;16.32;70.01;99830.84;5058621;28;20202;-62
2023/07/27 05:03:07;;;;;;;5.10;2.70;;;;;;;16.43;69.68;99823.47;5061580;28;20201;-62
2023/07/27 05:05:34;;;;;;;3.03;2.75;;;;;;;16.43;69.61;99828.69;5061576;28;20344;-62
2023/07/27 05:08:02;;;;;;;4.28;3.28;;;;;;;16.65;69.52;99831.28;5068853;28;20201;-62
2023/07/27 05:10:30;;;;;;;4.88;3.50;;;;;;;16.83;69.11;99828.91;5065823;28;20545;-61
2023/07/27 05:13:00;;;;;;;3.40;3.10;;;;;;;17.17;68.61;99824.88;5068447;28;20668;-63
2023/07/27 05:15:28;;;;;;;4.90;3.70;;;;;;;17.96;68.60;99825.78;5064535;28;20232;-64
2023/07/27 05:17:55;;;;;;;5.68;4.30;;;;;;;19.01;61.89;99818.16;5064442;28;20255;-62
2023/07/27 05:20:23;;;;;;;5.78;4.25;;;;;;;19.73;58.80;99811.84;5072063;28;20197;-62
2023/07/27 05:22:51;;;;;;;6.10;4.10;;;;;;;20.20;57.10;99805.00;5073960;28;20216;-60
2023/07/27 05:25:19;;;;;;;4.78;4.32;;;;;;;19.90;56.95;99812.75;5062621;28;20219;-61
2023/07/27 05:27:47;;;;;;;5.88;4.22;;;;;;;19.84;58.02;99800.00;5070453;28;20537;-61
2023/07/27 05:30:17;;;;;;;6.25;4.30;;;;;;;19.66;58.61;99789.63;5070809;28;20213;-61
2023/07/27 05:32:44;;;;;;;10.98;4.63;;;;;;;20.16;60.01;99798.25;5070455;28;20239;-62
2023/07/27 05:35:12;;;;;;;5.22;4.63;;;;;;;21.49;54.42;99798.44;5073551;28;20197;-64
2023/07/27 05:37:46;;;;;;;6.43;4.40;;;;;;;22.75;51.34;99796.59;5072782;28;20201;-64
2023/07/27 05:40:15;;;;;;;8.30;4.50;;;;;;;23.61;48.43;99796.09;5070759;28;20198;-64
2023/07/27 05:42:43;;;;;;;5.70;4.15;;;;;;;23.38;47.83;99792.41;5072276;28;20194;-63
2023/07/27 05:45:11;;;;;;;6.43;4.18;;;;;;;22.42;49.77;99795.25;5071583;28;20215;-61
2023/07/27 05:47:40;;;;;;;8.32;4.40;;;;;;;23.25;51.03;99796.81;5070684;28;20296;-62
2023/07/27 05:50:09;;;;;;;4.38;3.83;;;;;;;23.26;49.16;99795.88;5063006;28;20206;-61
2023/07/27 05:52:37;;;;;;;5.65;3.60;;;;;;;23.48;47.68;99801.34;5066267;28;20197;-62
2023/07/27 05:55:06;;;;;;;5.32;3.42;;;;;;;22.97;49.30;99800.47;5069835;28;20229;-61
2023/07/27 05:57:34;;;;;;;7.28;3.97;;;;;;;22.05;49.41;99807.22;5062414;28;20675;-61
2023/07/27 06:00:02;;;;;;;6.75;3.22;;;;;;;21.35;52.87;99812.38;5061347;28;20226;-61
2023/07/27 06:02:34;;;;;;;3.50;3.20;;;;;;;22.85;50.03;99805.56;5067794;28;20229;-62
2023/07/27 06:05:03;;;;;;;5.38;3.15;;;;;;;24.94;43.10;99804.94;5067268;28;20201;-61
2023/07/27 06:07:32;;;;;;;4.78;2.88;;;;;;;25.90;40.44;99803.78;5072122;28;20688;-63
2023/07/27 06:10:00;;;;;;;2.60;2.33;;;;;;;27.12;36.30;99809.66;5066980;28;20295;-63
2023/07/27 06:12:28;;;;;;;4.50;2.47;;;;;;;27.67;36.41;99804.09;5068948;28;20675;-62
2023/07/27 06:14:56;;;;;;;2.67;2.13;;;;;;;26.92;37.29;99818.41;5067570;28;20244;-60
2023/07/27 06:17:25;;;;;;;4.13;2.17;;;;;;;26.25;37.23;99806.22;5068197;28;20200;-61
2023/07/27 06:19:53;;;;;;;3.20;1.88;;;;;;;25.70;39.49;99810.56;5072857;28;20266;-60
2023/07/27 06:22:22;;;;;;;2.45;2.10;;;;;;;27.14;36.47;99801.59;5072743;28;20209;-61
2023/07/27 06:24:50;;;;;;;4.75;2.00;;;;;;;28.79;34.17;99802.09;5069865;28;20217;-65
2023/07/27 06:27:18;;;;;;;3.28;1.73;;;;;;;30.43;29.94;99794.56;5072321;28;20743;-62
2023/07/27 06:29:47;;;;;;;4.43;2.05;;;;;;;30.74;29.68;99790.53;5068638;28;20293;-64
2023/07/27 06:32:15;;;;;;;3.28;1.83;;;;;;;31.51;29.02;99801.41;5061168;28;20229;-61
2023/07/27 06:34:43;;;;;;;3.60;1.67;;;;;;;32.31;26.99;99799.22;5069694;28;20212;-61
2023/07/27 06:37:11;;;;;;;3.90;1.83;;;;;;;32.88;26.42;99801.97;5071382;28;20201;-63
2023/07/27 06:39:41;;;;;;;4.22;1.90;;;;;;;33.05;26.10;99804.63;5061943;28;20222;-62
2023/07/27 06:42:09;;;;;;;2.70;1.50;;;;;;;32.64;26.73;99805.47;5068791;28;20724;-60
2023/07/27 06:44:37;;;;;;;2.72;1.73;;;;;;;33.33;26.24;99803.25;5069492;28;20235;-61
2023/07/27 06:47:05;;;;;;;3.30;1.92;;;;;;;33.72;25.01;99807.00;5067480;28;20213;-62
2023/07/27 06:49:34;;;;;;;4.13;2.08;;;;;;;33.87;24.55;99807.94;5066833;28;20209;-61
2023/07/27 06:52:02;;;;;;;2.85;2.17;;;;;;;33.92;24.40;99802.91;5067046;28;20209;-62
2023/07/27 06:54:30;;;;;;;4.15;2.28;;;;;;;34.52;24.28;99796.91;5067595;28;20315;-62
2023/07/27 06:56:59;;;;;;;4.40;2.40;;;;;;;34.23;23.82;99802.94;5068439;28;20667;-69
2023/07/27 06:59:28;;;;;;;2.97;2.40;;;;;;;33.00;25.56;99810.50;5060889;28;20701;-61
2023/07/27 07:01:57;;;;;;;2.67;1.95;;;;;;;32.66;26.57;99808.81;5064996;28;20205;-61
2023/07/27 07:04:26;;;;;;;5.32;2.17;;;;;;;33.48;26.00;99811.44;5063613;28;20211;-63
2023/07/27 07:06:54;;;;;;;3.40;1.73;;;;;;;32.56;25.88;99813.47;5071892;28;20208;-61
2023/07/27 07:09:22;;;;;;;2.88;2.38;;;;;;;32.17;27.45;99808.69;5066322;28;20653;-63
2023/07/27 07:11:50;;;;;;;3.63;2.25;;;;;;;31.11;28.38;99813.44;5067108;28;20208;-65
2023/07/27 07:14:19;;;;;;;2.88;1.98;;;;;;;31.58;27.56;99812.25;5063666;28;20300;-62
2023/07/27 07:16:47;;;;;;;6.25;1.98;;;;;;;32.40;26.41;99816.06;5061873;28;20205;-64
2023/07/27 07:19:15;;;;;;;3.50;2.17;;;;;;;33.54;25.09;99820.59;5065949;28;20274;-65
2023/07/27 07:21:43;;;;;;;2.67;2.40;;;;;;;34.21;23.70;99817.47;5068607;28;20672;-65
2023/07/27 07:24:11;;;;;;;3.65;2.40;;;;;;;34.80;23.52;99815.09;5061031;28;20673;-64
2023/07/27 07:26:39;;;;;;;2.55;1.90;;;;;;;35.58;22.47;99813.03;5061996;28;20201;-64
2023/07/27 07:29:09;;;;;;;4.25;1.67;;;;;;;36.35;22.25;99807.19;5064372;28;20251;-64
2023/07/27 07:31:39;;;;;;;3.28;2.10;;;;;;;36.97;21.14;99807.38;5061096;28;20201;-65
2023/07/27 07:34:07;;;;;;;2.63;2.20;;;;;;;36.23;20.83;99814.88;5058341;28;20704;-63
2023/07/27 07:36:35;;;;;;;3.72;1.80;;;;;;;34.72;23.67;99817.81;5059458;28;20585;-64
2023/07/27 07:39:03;;;;;;;3.35;1.92;;;;;;;34.82;23.53;99805.03;5061695;28;20206;-67
2023/07/27 07:41:31;;;;;;;4.78;2.00;;;;;;;35.21;22.49;99807.53;5065728;28;20201;-64
2023/07/27 07:43:59;;;;;;;2.40;2.10;;;;;;;35.58;21.94;99813.03;5064690;28;20718;-64
2023/07/27 07:46:27;;;;;;;3.42;2.17;;;;;;;35.23;22.11;99820.75;5067137;28;20260;-64
2023/07/27 07:48:57;;;;;;;3.70;2.00;;;;;;;34.84;22.63;99822.59;5068117;28;20280;-64
2023/07/27 07:51:25;;;;;;;4.95;2.13;;;;;;;35.48;22.38;99814.09;5067817;28;20209;-64
2023/07/27 07:53:53;;;;;;;3.17;2.20;;;;;;;36.10;21.24;99807.53;5065912;28;20216;-65
2023/07/27 07:56:20;;;;;;;2.25;2.05;;;;;;;35.94;21.50;99813.94;5070422;28;20698;-65
2023/07/27 07:58:49;;;;;;;2.45;2.17;;;;;;;35.55;21.49;99815.06;5063008;28;20202;-64
2023/07/27 08:01:17;;;;;;;4.28;2.00;;;;;;;33.83;23.92;99817.31;5067160;28;20205;-64
2023/07/27 08:03:45;;;;;;;3.03;2.03;;;;;;;31.67;27.13;99821.97;5065375;28;21092;-64
2023/07/27 08:06:14;;;;;;;5.28;2.03;;;;;;;31.22;28.07;99826.47;5067868;28;20193;-65
2023/07/27 08:08:42;;;;;;;3.65;2.03;;;;;;;31.67;27.36;99822.81;5062863;28;20298;-67
2023/07/27 08:11:10;;;;;;;2.22;1.85;;;;;;;32.46;25.76;99826.09;5054498;28;20209;-64
2023/07/27 08:13:40;;;;;;;2.50;1.95;;;;;;;32.23;25.97;99826.69;5057534;28;20209;-62
2023/07/27 08:16:08;;;;;;;3.05;2.10;;;;;;;32.13;26.25;99827.84;5056363;28;20626;-63
2023/07/27 08:18:36;;;;;;;3.15;1.95;;;;;;;30.60;27.71;99823.00;5063261;28;20228;-63
2023/07/27 08:21:05;;;;;;;2.15;1.40;;;;;;;29.75;29.04;99827.66;5062663;28;20647;-65
2023/07/27 08:23:35;;;;;;;3.08;1.98;;;;;;;28.72;30.28;99824.84;5062112;28;20201;-65
2023/07/27 08:26:07;;;;;;;2.05;1.80;;;;;;;27.77;32.61;99822.72;5056140;28;20201;-64
2023/07/27 08:28:35;;;;;;;5.05;2.20;;;;;;;27.10;33.90;99824.78;5061491;28;20725;-64
2023/07/27 08:31:04;;;;;;;3.92;2.40;;;;;;;26.31;35.69;99824.22;5057032;28;20232;-67
2023/07/27 08:33:32;;;;;;;2.00;1.80;;;;;;;25.71;36.91;99826.31;5063372;28;20233;-65
2023/07/27 08:36:00;;;;;;;3.58;1.80;;;;;;;25.13;38.46;99829.94;5059718;28;20576;-65
2023/07/27 08:38:29;;;;;;;5.68;1.95;;;;;;;24.64;39.30;99829.13;5063014;28;20647;-65
2023/07/27 08:41:01;;;;;;;5.53;2.55;;;;;;;24.30;39.73;99836.81;5058852;28;20209;-66
2023/07/27 08:43:29;;;;;;;4.80;2.22;;;;;;;24.13;39.44;99831.09;5060661;28;20289;-64
2023/07/27 08:45:57;;;;;;;3.63;1.65;;;;;;;24.05;39.07;99829.00;5062744;28;20243;-66
2023/07/27 08:48:25;;;;;;;2.30;1.70;;;;;;;24.03;39.19;99830.88;5062888;28;20210;-64
2023/07/27 08:50:53;;;;;;;4.35;1.95;;;;;;;24.01;39.04;99823.09;5065753;28;20200;-64
2023/07/27 08:53:21;;;;;;;2.25;1.42;;;;;;;23.68;40.28;99822.84;5064943;28;20229;-64
2023/07/27 08:55:49;;;;;;;2.25;1.40;;;;;;;23.27;38.55;99835.22;5066902;28;20221;-65
2023/07/27 08:58:19;;;;;;;1.48;1.27;;;;;;;23.15;39.14;99826.34;5063692;28;20231;-65
2023/07/27 09:00:47;;;;;;;3.15;1.40;;;;;;;23.15;39.72;99822.88;5059634;28;20212;-64
2023/07/27 09:03:15;;;;;;;1.80;1.52;;;;;;;22.82;39.93;99826.78;5061435;28;20588;-67
2023/07/27 09:05:45;;;;;;;2.72;1.58;;;;;;;22.70;40.46;99821.50;5062188;28;20274;-64
2023/07/27 09:08:15;;;;;;;2.15;1.55;;;;;;;22.71;40.74;99823.19;5065652;28;20758;-62
2023/07/27 09:10:45;;;;;;;1.45;1.30;;;;;;;22.64;41.15;99826.22;5059457;28;20201;-63
2023/07/27 09:13:13;;;;;;;2.35;1.50;;;;;;;22.59;41.76;99817.78;5067654;28;20326;-63
2023/07/27 09:15:45;;;;;;;1.98;1.25;;;;;;;22.67;40.59;99826.00;5067510;28;20727;-64
2023/07/27 09:18:14;;;;;;;2.45;1.42;;;;;;;22.51;41.21;99829.75;5063421;28;20201;-63
2023/07/27 09:20:44;;;;;;;7.50;2.10;;;;;;;22.40;41.68;99817.28;5067944;28;20205;-69
2023/07/27 09:23:19;;;;;;;1.70;1.60;;;;;;;22.19;42.37;99825.59;5072161;28;20206;-69
2023/07/27 09:25:53;;;;;;;2.88;1.60;;;;;;;21.95;42.23;99824.47;5068470;28;20315;-63
2023/07/27 09:28:24;;;;;;;2.67;1.50;;;;;;;22.09;41.99;99815.72;5073996;28;20204;-66
2023/07/27 09:30:59;;;;;;;1.35;1.25;;;;;;;22.37;40.91;99814.88;5069374;28;20205;-66
2023/07/27 09:33:27;;;;;;;1.48;1.38;;;;;;;22.67;40.55;99822.53;5062235;28;20242;-64
2023/07/27 09:35:55;;;;;;;2.45;1.40;;;;;;;22.61;39.60;99800.16;5072031;28;20232;-65
2023/07/27 09:38:25;;;;;;;2.25;1.40;;;;;;;22.76;38.58;99813.22;5062841;28;20214;-65
2023/07/27 09:40:53;;;;;;;2.88;1.25;;;;;;;23.11;38.26;99810.91;5068298;28;20277;-64
2023/07/27 09:43:23;;;;;;;4.35;1.58;;;;;;;23.63;36.56;99813.44;5073326;28;20206;-62
2023/07/27 09:46:04;;;;;;;2.72;1.20;;;;;;;23.62;37.27;99811.75;5067289;28;20228;-66
2023/07/27 09:48:33;;;;;;;1.77;1.30;;;;;;;24.52;35.70;99809.81;5068772;28;20668;-64
2023/07/27 09:51:03;;;;;;;1.92;1.13;;;;;;;25.93;32.36;99812.28;5071163;28;20713;-64
2023/07/27 09:53:35;;;;;;;1.65;1.25;;;;;;;26.63;31.07;99802.31;5069303;28;20228;-64
2023/07/27 09:56:04;;;;;;;2.15;1.42;;;;;;;28.06;29.72;99804.25;5068622;28;20276;-64
2023/07/27 09:58:33;;;;;;;1.92;1.10;;;;;;;28.82;27.28;99802.66;5069532;28;20201;-65
2023/07/27 10:01:02;;;;;;;1.45;1.35;;;;;;;29.77;26.69;99793.81;5065150;28;20313;-65
2023/07/27 10:03:31;;;;;;;1.45;1.25;;;;;;;31.17;25.78;99785.38;5060694;28;20577;-64
2023/07/27 10:06:00;;;;;;;1.20;1.10;;;;;;;32.04;23.66;99780.84;5069086;28;20233;-65
2023/07/27 10:08:29;;;;;;;1.45;1.20;;;;;;;32.73;22.49;99776.94;5063306;28;20205;-64
2023/07/27 10:11:00;;;;;;;1.95;1.30;;;;;;;33.43;22.07;99784.34;5070476;28;20565;-63
2023/07/27 10:13:39;;;;;;;2.08;1.23;;;;;;;34.23;20.85;99776.19;5066169;28;20563;-63
2023/07/27 10:16:11;;;;;;;1.85;1.25;;;;;;;34.77;20.19;99773.47;5066052;28;20275;-66
2023/07/27 10:18:44;;;;;;;2.13;1.38;;;;;;;35.09;19.87;99772.34;5068747;28;20224;-65
2023/07/27 10:21:29;;;;;;;1.05;0.95;;;;;;;34.54;19.86;99780.66;5070123;28;20715;-65
2023/07/27 10:24:00;;;;;;;3.28;1.20;;;;;;;34.71;19.45;99773.34;5064324;28;20615;-64
2023/07/27 10:26:50;;;;;;;1.80;1.20;;;;;;;34.69;18.49;99778.03;5062430;28;20288;-65
2023/07/27 10:29:20;;;;;;;2.80;1.23;;;;;;;34.28;19.32;99767.63;5064598;28;20198;-66
2023/07/27 10:32:02;;;;;;;1.45;1.20;;;;;;;34.25;19.55;99765.31;5066057;28;20202;-67
2023/07/27 10:34:32;;;;;;;2.08;1.20;;;;;;;34.25;19.77;99771.50;5071783;28;20306;-65
2023/07/27 10:37:08;;;;;;;1.73;1.50;;;;;;;32.13;21.45;99778.00;5069003;28;20217;-66
2023/07/27 10:39:47;;;;;;;2.40;1.35;;;;;;;29.35;24.84;99783.63;5064817;28;20197;-65
2023/07/27 10:42:17;;;;;;;2.50;1.20;;;;;;;27.42;27.61;99779.72;5060467;28;20201;-65
2023/07/27 10:44:47;;;;;;;2.53;1.30;;;;;;;27.11;28.71;99783.31;5070151;28;20201;-64
2023/07/27 10:47:20;;;;;;;2.67;1.40;;;;;;;28.37;27.07;99774.06;5067545;28;20560;-66
2023/07/27 10:49:49;;;;;;;1.20;1.10;;;;;;;28.98;25.96;99766.75;5058254;28;20271;-68
2023/07/27 10:52:19;;;;;;;1.30;1.10;;;;;;;29.32;24.94;99772.44;5064528;28;20213;-67
2023/07/27 10:54:48;;;;;;;3.10;1.50;;;;;;;30.06;24.66;99760.94;5069179;28;20296;-66
2023/07/27 10:57:18;;;;;;;1.50;1.40;;;;;;;30.78;23.54;99762.66;5068937;28;20684;-67
2023/07/27 10:59:48;;;;;;;1.67;1.33;;;;;;;31.10;23.11;99760.38;5065119;28;20209;-67
2023/07/27 11:02:21;;;;;;;1.30;1.00;;;;;;;31.13;23.40;99750.25;5071536;28;20240;-66
2023/07/27 11:04:49;;;;;;;1.38;1.20;;;;;;;31.17;22.40;99750.78;5069080;28;20227;-63
2023/07/27 11:07:26;;;;;;;1.63;1.25;;;;;;;30.89;22.96;99750.06;5061571;28;20312;-66
2023/07/27 11:09:55;;;;;;;1.25;1.05;;;;;;;31.77;21.90;99737.41;5066602;28;20659;-66
2023/07/27 11:12:23;;;;;;;1.00;0.82;;;;;;;32.50;20.38;99734.09;5069182;28;20281;-65
2023/07/27 11:14:51;;;;;;;1.40;1.20;;;;;;;32.42;21.04;99732.25;5069291;28;20285;-65
2023/07/27 11:17:21;;;;;;;1.25;1.13;;;;;;;32.99;20.79;99736.72;5067694;28;20221;-67
2023/07/27 11:19:50;;;;;;;1.88;1.05;;;;;;;33.28;19.59;99749.50;5067184;28;20198;-64
2023/07/27 11:22:19;;;;;;;1.20;1.10;;;;;;;32.71;19.48;99731.75;5059761;28;20202;-65
2023/07/27 11:24:48;;;;;;;1.80;0.95;;;;;;;32.04;20.17;99731.03;5051719;28;20656;-64
2023/07/27 11:27:16;;;;;;;1.13;1.02;;;;;;;30.62;21.85;99741.22;5065739;28;20229;-65
2023/07/27 11:29:46;;;;;;;1.58;0.80;;;;;;;30.59;22.90;99733.53;5060424;28;20212;-64
2023/07/27 11:32:14;;;;;;;1.00;0.90;;;;;;;30.94;22.31;99723.84;5062553;28;20311;-65
2023/07/27 11:34:43;;;;;;;2.05;1.00;;;;;;;31.34;22.35;99714.47;5070658;28;20237;-65
2023/07/27 11:37:11;;;;;;;4.22;1.30;;;;;;;31.76;21.29;99719.75;5068237;28;20217;-63
2023/07/27 11:39:39;;;;;;;1.52;1.08;;;;;;;32.00;20.74;99721.69;5058054;28;20205;-64
2023/07/27 11:42:10;;;;;;;1.10;0.80;;;;;;;31.50;20.72;99720.66;5067688;28;20205;-66
2023/07/27 11:44:39;;;;;;;2.00;1.20;;;;;;;30.48;21.49;99712.50;5065476;28;20197;-64